Terminal Aerodrome Forecast
Issued by NWS Cleveland, OH

Home | Current Version | Previous Version | Graphics & Text | Print | Product List | Glossary On
Versions: 1 2 3 4 5 6 7 8 9 10 11 12 13 14 15
170
FTUS41 KCLE 260526
TAFCAK
TAF
KCAK 260526Z 2606/2706 19006KT P6SM SCT080 BKN250
     FM261500 20010KT P6SM VCSH SCT050 BKN080
     FM262100 22007KT P6SM BKN050=

USA.gov is the U.S. government's official web portal to all federal, state and local government web resources and services.